createdAt,value
2018-05-23T00:01:04.023Z,85.70
2018-05-23T00:03:31.522Z,86.20
2018-05-23T00:05:59.778Z,86.50
2018-05-23T00:08:27.295Z,86.40
2018-05-23T00:10:54.798Z,86.30
2018-05-23T00:13:22.294Z,86.60
2018-05-23T00:15:49.854Z,86.70
2018-05-23T00:18:17.354Z,87.40
2018-05-23T00:20:44.856Z,87.50
2018-05-23T00:23:12.382Z,87.80
2018-05-23T00:25:39.886Z,88.00
2018-05-23T00:28:08.142Z,88.20
2018-05-23T00:30:35.663Z,88.10
2018-05-23T00:33:03.162Z,87.80
2018-05-23T00:35:30.670Z,87.30
2018-05-23T00:37:58.227Z,87.50
2018-05-23T00:40:25.726Z,87.80
2018-05-23T00:42:54.230Z,87.80
2018-05-23T00:45:22.539Z,89.10
2018-05-23T00:47:50.059Z,88.30
2018-05-23T00:50:17.581Z,88.30
2018-05-23T00:52:45.095Z,87.80
2018-05-23T00:55:24.264Z,87.40
2018-05-23T00:57:51.834Z,87.00
2018-05-23T01:00:19.329Z,87.20
2018-05-23T01:02:46.823Z,87.50
2018-05-23T01:05:15.125Z,87.60
2018-05-23T01:07:42.618Z,87.50
2018-05-23T01:10:10.112Z,87.50
2018-05-23T01:12:38.523Z,88.00
2018-05-23T01:15:06.026Z,87.90
2018-05-23T01:17:33.554Z,87.90
2018-05-23T01:20:01.119Z,87.70
2018-05-23T01:22:29.374Z,88.70
2018-05-23T01:24:56.874Z,88.70
2018-05-23T01:27:24.402Z,89.50
2018-05-23T01:29:51.899Z,90.00
2018-05-23T01:32:19.404Z,90.20
2018-05-23T01:34:47.711Z,90.60
2018-05-23T01:37:15.206Z,90.60
2018-05-23T01:39:42.698Z,90.60
2018-05-23T01:42:11.003Z,90.70
2018-05-23T01:44:38.499Z,90.60
2018-05-23T01:47:06.000Z,90.50
2018-05-23T01:49:34.283Z,90.20
2018-05-23T01:52:01.779Z,90.10
2018-05-23T01:54:29.271Z,90.00
2018-05-23T01:56:56.791Z,90.00
2018-05-23T01:59:24.282Z,90.10
2018-05-23T02:01:51.774Z,90.20
2018-05-23T02:04:19.321Z,90.50
2018-05-23T02:06:46.818Z,90.50
2018-05-23T02:09:14.314Z,90.30
2018-05-23T02:11:41.859Z,90.40
2018-05-23T02:14:09.351Z,90.60
2018-05-23T02:16:36.838Z,90.60
2018-05-23T02:19:04.410Z,90.60
2018-05-23T02:21:31.902Z,90.30
2018-05-23T02:23:59.394Z,90.10
2018-05-23T02:26:27.302Z,90.10
2018-05-23T02:28:54.791Z,90.10
2018-05-23T02:31:22.282Z,90.20
2018-05-23T02:33:49.820Z,90.30
2018-05-23T02:36:17.316Z,90.30
2018-05-23T02:38:44.827Z,90.50
2018-05-23T02:41:12.374Z,90.50
2018-05-23T02:43:39.872Z,90.60
2018-05-23T02:46:07.370Z,90.60
2018-05-23T02:48:35.651Z,90.70
2018-05-23T02:51:03.148Z,90.60
2018-05-23T02:53:30.642Z,90.70
2018-05-23T02:55:58.257Z,90.90
2018-05-23T02:58:25.747Z,90.90
2018-05-23T03:00:53.243Z,91.00
2018-05-23T03:03:20.822Z,90.90
2018-05-23T03:05:48.315Z,90.70
2018-05-23T03:08:15.806Z,90.50
2018-05-23T03:10:43.377Z,90.20
2018-05-23T03:13:10.874Z,90.00
2018-05-23T03:15:38.367Z,90.00
2018-05-23T03:18:05.909Z,90.00
2018-05-23T03:20:33.402Z,90.10
2018-05-23T03:23:00.895Z,90.30
2018-05-23T03:25:29.230Z,90.50
2018-05-23T03:27:56.732Z,90.50
2018-05-23T03:30:25.000Z,91.20
2018-05-23T03:32:52.546Z,90.90
2018-05-23T03:35:20.042Z,91.00
2018-05-23T03:37:48.310Z,91.00
2018-05-23T03:40:15.830Z,90.90
2018-05-23T03:42:43.338Z,90.80
2018-05-23T03:45:11.600Z,90.80
2018-05-23T03:47:39.208Z,90.80
2018-05-23T03:50:06.711Z,90.90
2018-05-23T03:52:34.234Z,90.70
2018-05-23T03:55:01.796Z,90.60
2018-05-23T03:57:29.286Z,90.50
2018-05-23T04:00:08.480Z,90.50
2018-05-23T04:02:47.754Z,90.80
2018-05-23T04:05:27.183Z,91.20
2018-05-23T04:07:54.683Z,91.10
2018-05-23T04:10:22.187Z,91.00
2018-05-23T04:12:49.846Z,90.60
2018-05-23T04:15:17.344Z,90.80
2018-05-23T04:17:44.838Z,90.90
2018-05-23T04:20:12.370Z,90.80
2018-05-23T04:22:39.944Z,90.80
2018-05-23T04:25:07.439Z,90.90
2018-05-23T04:27:34.986Z,91.00
2018-05-23T04:30:02.482Z,91.40
2018-05-23T04:32:29.984Z,91.70
2018-05-23T04:34:57.543Z,91.90
2018-05-23T04:37:25.037Z,92.10
2018-05-23T04:39:52.534Z,92.30
2018-05-23T04:42:20.062Z,92.50
2018-05-23T04:44:47.571Z,92.60
2018-05-23T04:47:15.066Z,92.60
2018-05-23T04:49:43.376Z,92.70
2018-05-23T04:52:10.882Z,92.70
2018-05-23T04:54:38.385Z,92.80
2018-05-23T04:57:05.933Z,92.90
2018-05-23T04:59:33.422Z,92.90
2018-05-23T05:02:00.915Z,92.70
2018-05-23T05:04:28.487Z,92.50
2018-05-23T05:06:55.983Z,92.30
2018-05-23T05:09:24.244Z,91.70
2018-05-23T05:11:51.810Z,91.70
2018-05-23T05:14:20.072Z,91.30
2018-05-23T05:16:47.121Z,91.30
2018-05-23T05:19:14.201Z,91.00
2018-05-23T05:21:42.009Z,90.40
2018-05-23T05:24:09.056Z,90.40
2018-05-23T05:26:36.187Z,90.10
2018-05-23T05:29:03.232Z,89.70
2018-05-23T05:31:30.271Z,88.70
2018-05-23T05:33:57.510Z,88.20
2018-05-23T05:36:25.039Z,87.70
2018-05-23T05:38:52.105Z,87.20
2018-05-23T05:41:19.262Z,86.50
2018-05-23T05:50:29.043Z,84.90
2018-05-23T05:52:56.110Z,83.90
2018-05-23T05:55:23.146Z,83.50
2018-05-23T05:57:50.218Z,82.90
2018-05-23T06:00:18.022Z,81.80
2018-05-23T06:02:45.090Z,81.80
2018-05-23T06:05:12.209Z,80.50
2018-05-23T06:07:39.287Z,79.40
2018-05-23T06:10:06.327Z,78.50
2018-05-23T06:12:33.414Z,78.10
2018-05-23T06:15:00.458Z,77.90
2018-05-23T06:17:27.505Z,77.80
2018-05-23T06:19:54.574Z,77.50
2018-05-23T06:22:21.694Z,76.90
2018-05-23T06:24:48.693Z,75.80
2018-05-23T06:27:15.810Z,75.80
2018-05-23T06:29:42.853Z,74.90
2018-05-23T06:32:09.899Z,74.40
2018-05-23T06:34:36.994Z,73.50
2018-05-23T06:37:04.042Z,71.60
2018-05-23T06:39:31.873Z,70.00
2018-05-23T06:41:58.953Z,70.00
2018-05-23T06:44:26.761Z,67.80
2018-05-23T06:46:53.829Z,67.70
2018-05-23T06:49:20.949Z,66.90
2018-05-23T06:51:48.007Z,65.70
2018-05-23T06:54:15.055Z,63.20
2018-05-23T06:56:42.142Z,62.10
2018-05-23T06:59:09.199Z,61.00
2018-05-23T07:01:36.258Z,60.10
2018-05-23T07:04:03.379Z,59.60
2018-05-23T07:06:30.430Z,59.40
2018-05-23T07:08:57.482Z,59.00
2018-05-23T07:11:24.605Z,59.10
2018-05-23T07:13:51.648Z,58.90
2018-05-23T07:16:18.692Z,58.40
2018-05-23T07:18:45.763Z,56.90
2018-05-23T07:21:12.803Z,57.00
2018-05-23T07:23:39.910Z,57.00
2018-05-23T07:26:06.997Z,57.40
2018-05-23T07:28:34.037Z,56.70
2018-05-23T07:31:01.086Z,56.50
2018-05-23T07:33:28.945Z,55.60
2018-05-23T07:35:55.986Z,55.60
2018-05-23T07:38:23.129Z,55.40
2018-05-23T07:40:50.138Z,55.20
2018-05-23T07:43:17.186Z,55.30
2018-05-23T07:45:44.232Z,53.60
2018-05-23T07:48:11.358Z,53.20
2018-05-23T07:50:38.401Z,51.60
2018-05-23T07:53:05.446Z,52.20
2018-05-23T07:55:33.304Z,53.20
2018-05-23T07:58:00.350Z,53.20
2018-05-23T08:00:27.450Z,52.30
2018-05-23T08:02:54.542Z,51.30
2018-05-23T08:05:21.582Z,50.30
2018-05-23T08:07:48.636Z,48.00
2018-05-23T08:10:15.757Z,48.60
2018-05-23T08:12:42.801Z,48.50
2018-05-23T08:15:09.842Z,48.00
2018-05-23T08:17:36.927Z,48.30
2018-05-23T08:20:03.973Z,47.30
2018-05-23T08:22:31.110Z,46.80
2018-05-23T08:24:58.198Z,46.90
2018-05-23T08:27:25.245Z,45.90
2018-05-23T08:29:52.349Z,46.30
2018-05-23T08:32:19.395Z,46.20
2018-05-23T08:34:46.444Z,46.10
2018-05-23T08:37:13.495Z,46.10
2018-05-23T08:39:40.915Z,45.70
2018-05-23T08:42:07.978Z,46.00
2018-05-23T08:44:35.792Z,45.40
2018-05-23T08:47:02.906Z,45.40
2018-05-23T08:49:29.952Z,44.60
2018-05-23T08:51:57.766Z,43.40
2018-05-23T08:54:24.864Z,43.40
2018-05-23T08:56:52.678Z,43.20
2018-05-23T08:59:19.721Z,43.10
2018-05-23T09:08:29.804Z,42.40
2018-05-23T09:10:56.850Z,42.50
2018-05-23T09:13:23.893Z,42.50
2018-05-23T09:15:50.978Z,41.80
2018-05-23T09:18:18.026Z,40.80
2018-05-23T09:20:45.070Z,41.00
2018-05-23T09:23:12.173Z,42.60
2018-05-23T09:25:40.023Z,42.10
2018-05-23T09:28:07.066Z,41.00
2018-05-23T09:30:34.930Z,41.20
2018-05-23T09:33:01.986Z,41.20
2018-05-23T09:35:29.030Z,41.60
2018-05-23T09:37:56.102Z,41.40
2018-05-23T09:40:23.142Z,41.10
2018-05-23T09:42:50.181Z,40.90
2018-05-23T09:45:17.295Z,41.10
2018-05-23T09:47:44.339Z,40.00
2018-05-23T09:50:11.383Z,38.40
2018-05-23T09:52:38.492Z,38.40
2018-05-23T09:55:05.664Z,39.00
2018-05-23T09:57:32.654Z,38.80
2018-05-23T09:59:59.738Z,38.90
2018-05-23T10:02:26.793Z,38.50
2018-05-23T10:04:53.943Z,38.10
2018-05-23T10:07:21.047Z,38.20
2018-05-23T10:09:48.091Z,38.30
2018-05-23T10:12:15.148Z,38.20
2018-05-23T10:14:42.226Z,38.80
2018-05-23T10:17:09.266Z,39.10
2018-05-23T10:19:36.310Z,38.80
2018-05-23T10:22:03.378Z,38.20
2018-05-23T10:24:30.462Z,37.30
2018-05-23T10:26:57.543Z,37.00
2018-05-23T10:29:25.147Z,35.70
2018-05-23T10:31:53.334Z,35.90
2018-05-23T10:34:20.379Z,36.30
2018-05-23T10:36:47.915Z,34.30
2018-05-23T10:39:15.411Z,34.40
2018-05-23T10:41:43.032Z,33.30
2018-05-23T10:44:10.617Z,33.20
2018-05-23T10:46:38.120Z,33.80
2018-05-23T10:49:05.630Z,32.80
2018-05-23T10:51:33.216Z,32.50
2018-05-23T10:54:00.698Z,32.50
2018-05-23T10:56:28.346Z,32.40
2018-05-23T10:58:55.906Z,31.90
2018-05-23T11:01:23.509Z,32.40
2018-05-23T11:03:51.458Z,32.40
2018-05-23T11:06:18.975Z,33.90
2018-05-23T11:08:46.484Z,34.20
2018-05-23T11:11:13.977Z,33.60
2018-05-23T11:13:41.864Z,33.20
2018-05-23T11:16:09.345Z,33.90
2018-05-23T11:18:36.840Z,33.20
2018-05-23T11:21:04.354Z,32.80
2018-05-23T11:23:31.843Z,31.60
2018-05-23T11:25:59.336Z,32.90
2018-05-23T11:28:26.894Z,32.00
2018-05-23T11:30:54.390Z,30.40
2018-05-23T11:33:21.883Z,29.10
2018-05-23T11:35:49.411Z,29.10
2018-05-23T11:38:16.898Z,29.50
2018-05-23T11:40:44.399Z,30.50
2018-05-23T11:43:11.937Z,31.60
2018-05-23T11:45:39.430Z,31.80
2018-05-23T11:48:06.914Z,32.60
2018-05-23T11:50:34.431Z,33.30
2018-05-23T11:53:01.930Z,33.30
2018-05-23T11:55:29.423Z,33.30
2018-05-23T11:57:56.946Z,32.50
2018-05-23T12:00:24.435Z,32.20
2018-05-23T12:02:51.926Z,32.20
2018-05-23T12:05:19.482Z,31.40
2018-05-23T12:07:47.114Z,30.70
2018-05-23T12:10:14.692Z,30.50
2018-05-23T12:12:42.160Z,29.90
2018-05-23T12:15:09.662Z,29.70
2018-05-23T12:17:37.155Z,29.40
2018-05-23T12:20:04.686Z,29.00
2018-05-23T12:22:32.175Z,28.50
2018-05-23T12:24:59.676Z,28.40
2018-05-23T12:27:27.234Z,27.90
2018-05-23T12:29:54.722Z,27.90
2018-05-23T12:32:22.218Z,27.40
2018-05-23T12:34:49.738Z,27.80
2018-05-23T12:37:17.226Z,28.40
2018-05-23T12:39:44.718Z,29.00
2018-05-23T12:42:13.025Z,29.80
2018-05-23T12:44:40.526Z,29.80
2018-05-23T12:47:08.014Z,30.50
2018-05-23T12:49:36.353Z,29.50
2018-05-23T12:52:03.850Z,29.50
2018-05-23T12:54:32.113Z,30.10
2018-05-23T12:56:59.658Z,29.70
2018-05-23T12:59:27.231Z,29.60
2018-05-23T13:01:54.756Z,28.90
2018-05-23T13:04:22.279Z,29.10
2018-05-23T13:06:49.780Z,28.90
2018-05-23T13:09:17.271Z,27.90
2018-05-23T13:11:44.806Z,28.20
2018-05-23T13:14:12.294Z,27.50
2018-05-23T13:16:39.814Z,27.30
2018-05-23T13:19:07.390Z,27.60
2018-05-23T13:21:34.884Z,28.50
2018-05-23T13:24:02.387Z,29.00
2018-05-23T13:26:29.974Z,29.70
2018-05-23T13:28:57.463Z,31.20
2018-05-23T13:31:24.958Z,32.20
2018-05-23T13:33:52.508Z,32.60
2018-05-23T13:36:20.763Z,32.30
2018-05-23T13:38:48.261Z,32.30
2018-05-23T13:41:15.854Z,31.20
2018-05-23T13:43:43.343Z,30.00
2018-05-23T13:46:10.832Z,29.00
2018-05-23T13:48:38.363Z,29.60
2018-05-23T13:51:05.851Z,28.90
2018-05-23T13:53:33.341Z,28.80
2018-05-23T13:56:00.878Z,28.40
2018-05-23T13:58:30.066Z,28.70
2018-05-23T14:00:57.553Z,28.60
2018-05-23T14:03:25.068Z,28.20
2018-05-23T14:05:52.561Z,27.00
2018-05-23T14:08:20.810Z,27.70
2018-05-23T14:10:48.376Z,27.70
2018-05-23T14:13:15.865Z,28.70
2018-05-23T14:15:44.118Z,30.00
2018-05-23T14:18:11.658Z,30.00
2018-05-23T14:20:39.147Z,30.80
2018-05-23T14:23:07.403Z,33.40
2018-05-23T14:32:18.076Z,32.50
2018-05-23T14:34:45.566Z,32.30
2018-05-23T14:37:13.060Z,32.10
2018-05-23T14:39:40.607Z,32.00
2018-05-23T14:42:08.094Z,32.20
2018-05-23T14:44:35.579Z,32.50
2018-05-23T14:47:03.114Z,33.10
2018-05-23T14:49:31.377Z,33.60
2018-05-23T14:51:58.870Z,33.60
2018-05-23T14:54:26.427Z,34.30
2018-05-23T14:56:53.934Z,34.00
2018-05-23T14:59:21.483Z,34.00
2018-05-23T15:01:49.100Z,34.10
2018-05-23T15:04:17.432Z,35.70
2018-05-23T15:06:44.935Z,35.60
2018-05-23T15:09:13.225Z,36.30
2018-05-23T15:11:40.722Z,36.20
2018-05-23T15:14:08.210Z,36.30
2018-05-23T15:16:35.803Z,35.40
2018-05-23T15:19:03.290Z,35.20
2018-05-23T15:21:30.796Z,34.90
2018-05-23T15:23:58.342Z,35.00
2018-05-23T15:26:25.830Z,34.80
2018-05-23T15:28:54.090Z,32.80
2018-05-23T15:31:21.652Z,32.70
2018-05-23T15:33:49.118Z,32.90
2018-05-23T15:36:16.606Z,33.00
2018-05-23T15:38:44.935Z,33.90
2018-05-23T15:41:12.423Z,33.90
2018-05-23T15:43:39.909Z,31.30
2018-05-23T15:46:07.441Z,29.80
2018-05-23T15:48:34.932Z,28.50
2018-05-23T15:51:02.436Z,28.60
2018-05-23T15:53:29.974Z,27.40
2018-05-23T15:55:57.466Z,27.00
2018-05-23T15:58:25.490Z,28.20
2018-05-23T16:00:53.047Z,29.30
2018-05-23T16:03:21.294Z,30.20
2018-05-23T16:05:48.782Z,30.10
2018-05-23T16:08:16.344Z,29.30
2018-05-23T16:10:44.643Z,29.60
2018-05-23T16:13:12.130Z,30.20
2018-05-23T16:15:39.676Z,31.50
2018-05-23T16:18:07.158Z,30.30
2018-05-23T16:20:34.723Z,29.70
2018-05-23T16:23:02.287Z,29.00
2018-05-23T16:25:29.775Z,28.60
2018-05-23T16:27:58.034Z,27.10
2018-05-23T16:30:25.591Z,27.10
2018-05-23T16:32:53.079Z,27.80
2018-05-23T16:35:21.360Z,30.00
2018-05-23T16:37:48.894Z,29.90
2018-05-23T16:40:16.382Z,31.50
2018-05-23T16:42:44.635Z,31.50
2018-05-23T16:45:12.143Z,31.50
2018-05-23T16:47:39.640Z,30.40
2018-05-23T16:50:07.126Z,28.90
2018-05-23T16:52:35.454Z,26.10
2018-05-23T16:55:02.940Z,26.00
2018-05-23T16:57:30.431Z,25.10
2018-05-23T16:59:58.786Z,24.40
2018-05-23T17:02:26.290Z,24.40
2018-05-23T17:04:53.803Z,23.80
2018-05-23T17:07:21.332Z,24.00
2018-05-23T17:09:48.833Z,23.60
2018-05-23T17:12:16.329Z,23.60
2018-05-23T17:14:43.841Z,23.50
2018-05-23T17:17:11.329Z,23.30
2018-05-23T17:19:39.583Z,24.40
2018-05-23T17:22:07.147Z,24.30
2018-05-23T17:24:34.647Z,24.90
2018-05-23T17:27:02.894Z,27.30
2018-05-23T17:29:30.430Z,27.20
2018-05-23T17:31:57.927Z,28.60
2018-05-23T17:34:26.180Z,29.20
2018-05-23T17:36:53.698Z,29.30
2018-05-23T17:39:21.195Z,30.40
2018-05-23T17:41:48.696Z,32.20
2018-05-23T17:44:17.014Z,34.60
2018-05-23T17:46:45.485Z,34.50
2018-05-23T17:49:12.975Z,34.90
2018-05-23T17:51:40.527Z,35.20
2018-05-23T17:54:08.019Z,35.80
2018-05-23T17:56:35.510Z,36.10
2018-05-23T17:59:03.026Z,36.70
2018-05-23T18:01:30.517Z,37.20
2018-05-23T18:03:58.778Z,38.10
2018-05-23T18:06:26.334Z,38.00
2018-05-23T18:08:53.814Z,38.20
2018-05-23T18:11:22.072Z,39.50
2018-05-23T18:13:49.612Z,39.50
2018-05-23T18:16:17.095Z,40.40
2018-05-23T18:18:44.588Z,41.20
2018-05-23T18:21:12.102Z,42.20
2018-05-23T18:30:23.110Z,44.90
2018-05-23T18:32:50.605Z,46.80
2018-05-23T18:35:18.321Z,47.10
2018-05-23T18:37:45.892Z,47.60
2018-05-23T18:40:13.399Z,48.00
2018-05-23T18:42:40.914Z,48.40
2018-05-23T18:45:08.422Z,48.80
2018-05-23T18:47:35.910Z,49.30
2018-05-23T18:50:03.398Z,49.70
2018-05-23T18:52:30.979Z,49.80
2018-05-23T18:54:58.482Z,50.10
2018-05-23T18:57:26.874Z,50.40
2018-05-23T18:59:54.444Z,50.50
2018-05-23T19:02:21.938Z,50.60
2018-05-23T19:04:49.469Z,50.70
2018-05-23T19:07:16.997Z,50.40
2018-05-23T19:09:45.454Z,51.20
2018-05-23T19:12:19.061Z,51.20
2018-05-23T19:14:50.340Z,51.70
2018-05-23T19:17:21.000Z,51.80
2018-05-23T19:19:52.998Z,51.70
2018-05-23T19:22:23.713Z,52.00
2018-05-23T19:24:54.419Z,51.90
2018-05-23T19:27:23.783Z,52.50
2018-05-23T19:29:53.167Z,52.20
2018-05-23T19:32:24.218Z,52.20
2018-05-23T19:34:56.700Z,52.20
2018-05-23T19:37:27.531Z,52.30
2018-05-23T19:39:55.145Z,52.50
2018-05-23T19:42:22.725Z,52.60
2018-05-23T19:44:50.246Z,53.40
2018-05-23T19:47:17.797Z,53.00
2018-05-23T19:49:45.291Z,52.60
2018-05-23T19:52:12.980Z,53.10
2018-05-23T19:54:40.473Z,53.10
2018-05-23T19:57:08.021Z,53.20
2018-05-23T19:59:35.518Z,53.20
2018-05-23T20:02:03.120Z,53.20
2018-05-23T20:04:30.602Z,53.20
2018-05-23T20:06:58.102Z,53.20
2018-05-23T20:09:25.622Z,53.20
2018-05-23T20:11:53.199Z,53.20
2018-05-23T20:14:20.732Z,53.30
2018-05-23T20:16:48.997Z,53.60
2018-05-23T20:19:16.522Z,53.60
2018-05-23T20:21:44.019Z,53.80
2018-05-23T20:24:11.515Z,54.00
2018-05-23T20:26:39.091Z,54.30
2018-05-23T20:29:06.590Z,54.30
2018-05-23T20:31:34.099Z,54.40
2018-05-23T20:34:01.635Z,54.40
2018-05-23T20:36:29.129Z,54.40
2018-05-23T20:38:56.627Z,54.80
2018-05-23T20:41:24.174Z,54.90
2018-05-23T20:43:51.658Z,55.10
2018-05-23T20:46:19.150Z,55.00
2018-05-23T20:48:46.689Z,54.90
2018-05-23T20:51:14.199Z,55.10
2018-05-23T20:53:41.686Z,55.20
2018-05-23T20:56:09.247Z,55.30
2018-05-23T20:58:36.818Z,55.40
2018-05-23T21:01:04.234Z,55.40
2018-05-23T21:03:31.769Z,55.40
2018-05-23T21:05:59.257Z,55.70
2018-05-23T21:08:26.747Z,56.00
2018-05-23T21:10:55.031Z,56.40
2018-05-23T21:13:23.339Z,56.60
2018-05-23T21:15:50.886Z,56.60
2018-05-23T21:18:18.563Z,56.90
2018-05-23T21:20:46.106Z,58.00
2018-05-23T21:23:13.672Z,58.50
2018-05-23T21:25:41.282Z,59.20
2018-05-23T21:28:08.854Z,59.40
2018-05-23T21:30:36.403Z,59.60
2018-05-23T21:33:04.057Z,60.30
2018-05-23T21:35:31.618Z,60.60
2018-05-23T21:37:59.124Z,61.00
2018-05-23T21:40:26.651Z,61.30
2018-05-23T21:42:54.156Z,61.40
2018-05-23T21:45:22.418Z,62.60
2018-05-23T21:47:50.055Z,62.60
2018-05-23T21:50:17.574Z,63.00
2018-05-23T21:52:45.059Z,63.30
2018-05-23T21:55:12.630Z,63.40
2018-05-23T21:57:40.919Z,64.10
2018-05-23T22:00:08.443Z,64.10
2018-05-23T22:02:35.979Z,64.30
2018-05-23T22:05:04.282Z,64.80
2018-05-23T22:07:31.767Z,64.80
2018-05-23T22:09:59.282Z,65.50
2018-05-23T22:12:26.780Z,65.80
2018-05-23T22:14:54.267Z,66.30
2018-05-23T22:17:21.829Z,67.00
2018-05-23T22:19:49.315Z,66.80
2018-05-23T22:22:16.806Z,67.30
2018-05-23T22:24:44.367Z,67.40
2018-05-23T22:27:11.854Z,67.60
2018-05-23T22:29:39.339Z,68.10
2018-05-23T22:32:06.874Z,68.50
2018-05-23T22:34:35.126Z,69.40
2018-05-23T22:37:02.620Z,68.80
2018-05-23T22:39:30.166Z,69.50
2018-05-23T22:41:57.651Z,69.90
2018-05-23T22:44:25.142Z,70.10
2018-05-23T22:46:52.706Z,70.50
2018-05-23T22:49:20.975Z,70.40
2018-05-23T22:51:48.471Z,70.30
2018-05-23T22:54:15.989Z,70.40
2018-05-23T22:56:44.259Z,70.40
2018-05-23T22:59:11.753Z,70.40
2018-05-23T23:01:39.361Z,70.40
2018-05-23T23:04:07.546Z,70.60
2018-05-23T23:06:35.034Z,70.60
2018-05-23T23:09:02.594Z,70.70
2018-05-23T23:11:30.843Z,71.00
2018-05-23T23:13:58.331Z,70.90
2018-05-23T23:16:25.857Z,71.50
2018-05-23T23:18:53.430Z,72.00
2018-05-23T23:21:20.858Z,72.50
2018-05-23T23:23:48.373Z,72.90
2018-05-23T23:26:15.855Z,73.00
2018-05-23T23:28:43.334Z,73.30
2018-05-23T23:31:10.891Z,73.30
2018-05-23T23:33:38.382Z,73.30
2018-05-23T23:36:05.873Z,73.40
2018-05-23T23:38:34.169Z,73.80
2018-05-23T23:41:01.746Z,73.80
2018-05-23T23:43:29.235Z,73.80
2018-05-23T23:45:56.794Z,74.00
2018-05-23T23:48:24.294Z,74.10
2018-05-23T23:50:51.783Z,74.70
2018-05-23T23:53:19.303Z,75.50
2018-05-23T23:55:46.790Z,76.00
2018-05-23T23:58:14.283Z,76.60
